createdAt,value
2023-01-13T00:01:50.797Z,5.07
2023-01-13T00:04:18.221Z,5.32
2023-01-13T00:06:45.466Z,4.72
2023-01-13T00:09:12.608Z,5.35
2023-01-13T00:11:39.637Z,5.85
2023-01-13T00:14:06.687Z,5.47
2023-01-13T00:16:34.001Z,5.10
2023-01-13T00:19:02.933Z,5.60
2023-01-13T00:21:30.056Z,5.13
2023-01-13T00:23:57.170Z,5.65
2023-01-13T00:26:30.848Z,5.75
2023-01-13T00:28:58.981Z,4.75
2023-01-13T00:31:26.751Z,4.80
2023-01-13T00:33:59.460Z,4.50
2023-01-13T00:36:27.117Z,4.93
2023-01-13T00:38:54.279Z,4.90
2023-01-13T00:41:23.275Z,4.32
2023-01-13T00:43:51.005Z,4.65
2023-01-13T00:46:21.232Z,5.20
2023-01-13T00:48:48.835Z,6.55
2023-01-13T00:51:19.747Z,4.28
2023-01-13T00:53:49.418Z,5.00
2023-01-13T00:56:24.314Z,4.93
2023-01-13T00:58:58.944Z,4.63
2023-01-13T01:01:26.545Z,5.22
2023-01-13T01:03:55.721Z,4.47
2023-01-13T01:06:27.773Z,5.55
2023-01-13T01:08:56.195Z,5.57
2023-01-13T01:11:29.411Z,4.97
2023-01-13T01:14:02.189Z,5.55
2023-01-13T01:16:31.648Z,5.53
2023-01-13T01:18:59.564Z,5.28
2023-01-13T01:21:28.219Z,4.80
2023-01-13T01:23:55.691Z,5.25
2023-01-13T01:26:24.917Z,5.30
2023-01-13T01:28:53.124Z,5.65
2023-01-13T01:31:32.012Z,5.40
2023-01-13T01:34:00.136Z,5.28
2023-01-13T01:36:32.408Z,5.88
2023-01-13T01:39:00.130Z,5.97
2023-01-13T01:41:30.299Z,5.72
2023-01-13T01:44:29.035Z,5.68
2023-01-13T01:46:57.863Z,5.50
2023-01-13T01:49:33.906Z,5.47
2023-01-13T01:52:00.931Z,5.60
2023-01-13T01:55:09.957Z,5.82
2023-01-13T01:57:49.338Z,4.80
2023-01-13T02:00:20.462Z,5.60
2023-01-13T02:02:50.180Z,5.30
2023-01-13T02:05:18.214Z,5.07
2023-01-13T02:07:49.512Z,5.15
2023-01-13T02:10:20.316Z,5.30
2023-01-13T02:12:49.084Z,5.25
2023-01-13T02:15:39.498Z,4.60
2023-01-13T02:18:35.745Z,5.13
2023-01-13T02:21:45.688Z,4.93
2023-01-13T02:24:54.789Z,5.35
2023-01-13T02:27:42.854Z,4.80
2023-01-13T02:30:48.367Z,5.18
2023-01-13T02:33:31.224Z,5.13
2023-01-13T02:36:10.514Z,5.97
2023-01-13T02:38:51.053Z,5.40
2023-01-13T02:41:53.369Z,5.35
2023-01-13T02:44:26.159Z,5.43
2023-01-13T02:47:05.380Z,5.80
2023-01-13T02:49:46.848Z,6.05
2023-01-13T02:52:21.233Z,5.97
2023-01-13T02:54:58.917Z,6.45
2023-01-13T02:57:28.549Z,5.72
2023-01-13T02:59:56.038Z,6.03
2023-01-13T03:02:25.452Z,6.85
2023-01-13T03:04:57.904Z,6.57
2023-01-13T03:07:47.986Z,6.78
2023-01-13T03:10:51.116Z,6.57
2023-01-13T03:13:21.065Z,5.72
2023-01-13T03:16:09.977Z,5.88
2023-01-13T03:18:56.549Z,6.43
2023-01-13T03:21:49.764Z,6.00
2023-01-13T03:24:39.028Z,5.63
2023-01-13T03:27:41.395Z,6.53
2023-01-13T03:30:17.434Z,6.45
2023-01-13T03:32:49.861Z,6.72
2023-01-13T03:35:32.458Z,6.05
2023-01-13T03:38:34.835Z,6.20
2023-01-13T03:41:07.120Z,6.32
2023-01-13T03:43:58.832Z,6.28
2023-01-13T03:46:54.873Z,6.63
2023-01-13T03:49:25.835Z,6.53
2023-01-13T03:51:58.850Z,6.75
2023-01-13T03:54:31.310Z,6.97
2023-01-13T03:57:04.476Z,6.15
2023-01-13T03:59:35.740Z,7.55
2023-01-13T04:02:21.933Z,6.75
2023-01-13T04:04:54.747Z,6.63
2023-01-13T04:07:36.307Z,7.07
2023-01-13T04:10:07.324Z,6.75
2023-01-13T04:13:00.321Z,6.80
2023-01-13T04:15:30.987Z,7.53
2023-01-13T04:18:14.492Z,7.13
2023-01-13T04:20:43.778Z,7.60
2023-01-13T04:23:13.832Z,8.75
2023-01-13T04:25:45.951Z,9.05
2023-01-13T04:28:14.406Z,8.98
2023-01-13T04:30:42.663Z,8.88
2023-01-13T04:33:10.759Z,8.90
2023-01-13T04:35:38.461Z,9.90
2023-01-13T04:38:09.083Z,8.45
2023-01-13T04:40:36.542Z,8.77
2023-01-13T04:43:04.351Z,8.48
2023-01-13T04:45:32.046Z,8.05
2023-01-13T04:47:59.304Z,8.27
2023-01-13T04:50:26.455Z,7.93
2023-01-13T04:52:54.328Z,9.20
2023-01-13T04:55:23.131Z,8.52
2023-01-13T04:57:50.097Z,8.13
2023-01-13T05:00:19.321Z,8.85
2023-01-13T05:02:46.498Z,9.27
2023-01-13T05:05:13.444Z,9.05
2023-01-13T05:07:50.695Z,8.88
2023-01-13T05:10:18.017Z,8.05
2023-01-13T05:13:09.584Z,9.35
2023-01-13T05:16:01.102Z,8.68
2023-01-13T05:18:33.848Z,8.82
2023-01-13T05:21:00.800Z,8.50
2023-01-13T05:23:46.930Z,9.00
2023-01-13T05:26:13.942Z,8.48
2023-01-13T05:28:40.852Z,8.27
2023-01-13T05:31:08.376Z,9.40
2023-01-13T05:33:36.143Z,7.90
2023-01-13T05:36:04.410Z,8.10
2023-01-13T05:38:31.311Z,8.05
2023-01-13T05:41:18.422Z,8.02
2023-01-13T05:43:45.434Z,8.20
2023-01-13T05:46:12.623Z,10.40
2023-01-13T05:48:42.087Z,8.00
2023-01-13T05:51:11.740Z,8.27
2023-01-13T05:53:41.009Z,7.53
2023-01-13T05:56:09.384Z,8.57
2023-01-13T05:58:36.793Z,7.68
2023-01-13T06:01:08.045Z,8.18
2023-01-13T06:03:35.984Z,7.35
2023-01-13T06:06:04.302Z,7.70
2023-01-13T06:08:32.314Z,7.90
2023-01-13T06:10:59.323Z,8.27
2023-01-13T06:13:26.428Z,8.27
2023-01-13T06:15:58.133Z,7.22
2023-01-13T06:18:25.676Z,7.38
2023-01-13T06:20:52.624Z,6.88
2023-01-13T06:23:25.320Z,7.85
2023-01-13T06:26:21.232Z,6.60
2023-01-13T06:28:50.149Z,7.65
2023-01-13T06:31:17.593Z,6.78
2023-01-13T06:33:55.817Z,7.93
2023-01-13T06:36:31.577Z,7.82
2023-01-13T06:39:11.577Z,8.27
2023-01-13T06:41:57.584Z,7.30
2023-01-13T06:44:25.329Z,8.25
2023-01-13T06:46:52.526Z,8.15
2023-01-13T06:49:21.530Z,8.98
2023-01-13T06:51:48.888Z,7.60
2023-01-13T06:54:16.515Z,7.45
2023-01-13T06:56:44.107Z,7.43
2023-01-13T06:59:11.065Z,8.60
2023-01-13T07:01:42.693Z,7.72
2023-01-13T07:04:10.029Z,8.02
2023-01-13T07:06:37.046Z,9.02
2023-01-13T07:09:06.730Z,8.32
2023-01-13T07:11:38.591Z,8.52
2023-01-13T07:14:24.143Z,8.20
2023-01-13T07:16:53.221Z,7.88
2023-01-13T07:19:24.049Z,8.20
2023-01-13T07:22:04.255Z,8.05
2023-01-13T07:24:31.571Z,8.73
2023-01-13T07:26:58.529Z,8.55
2023-01-13T07:29:25.553Z,9.77
2023-01-13T07:31:54.121Z,8.32
2023-01-13T07:34:21.100Z,8.73
2023-01-13T07:36:48.723Z,9.50
2023-01-13T07:39:15.787Z,8.73
2023-01-13T07:42:01.370Z,7.93
2023-01-13T07:44:31.525Z,7.30
2023-01-13T07:47:10.553Z,7.32
2023-01-13T07:49:38.623Z,6.90
2023-01-13T07:52:15.453Z,7.55
2023-01-13T07:54:42.720Z,7.57
2023-01-13T07:57:09.789Z,8.20
2023-01-13T07:59:37.155Z,8.27
2023-01-13T08:02:04.429Z,9.30
2023-01-13T08:04:31.525Z,7.97
2023-01-13T08:07:02.611Z,8.00
2023-01-13T08:09:29.946Z,7.57
2023-01-13T08:12:15.762Z,7.22
2023-01-13T08:14:43.006Z,7.10
2023-01-13T08:17:25.939Z,7.28
2023-01-13T08:19:53.725Z,7.88
2023-01-13T08:22:20.641Z,7.88
2023-01-13T08:24:47.774Z,7.10
2023-01-13T08:27:14.941Z,7.18
2023-01-13T08:29:51.045Z,9.02
2023-01-13T08:32:25.027Z,7.65
2023-01-13T08:34:52.405Z,7.13
2023-01-13T08:37:19.461Z,8.13
2023-01-13T08:39:47.400Z,7.35
2023-01-13T08:42:14.825Z,7.93
2023-01-13T08:44:42.081Z,8.35
2023-01-13T08:47:09.158Z,8.45
2023-01-13T08:49:36.086Z,9.23
2023-01-13T08:52:03.108Z,8.35
2023-01-13T08:54:30.073Z,9.07
2023-01-13T08:56:57.069Z,8.70
2023-01-13T08:59:23.958Z,7.60
2023-01-13T09:01:51.130Z,8.95
2023-01-13T09:04:21.428Z,9.57
2023-01-13T09:06:49.729Z,7.30
2023-01-13T09:09:22.565Z,7.88
2023-01-13T09:12:10.223Z,7.68
2023-01-13T09:14:38.690Z,6.68
2023-01-13T09:17:07.499Z,7.43
2023-01-13T09:19:34.443Z,6.85
2023-01-13T09:22:01.612Z,7.45
2023-01-13T09:24:29.054Z,7.57
2023-01-13T09:26:56.176Z,8.82
2023-01-13T09:29:23.267Z,7.78
2023-01-13T09:31:50.417Z,8.07
2023-01-13T09:34:38.257Z,8.02
2023-01-13T09:37:06.988Z,7.57
2023-01-13T09:39:35.134Z,8.50
2023-01-13T09:42:47.377Z,8.52
2023-01-13T09:45:20.917Z,8.77
2023-01-13T09:48:05.884Z,8.23
2023-01-13T09:53:30.984Z,7.75
2023-01-13T09:55:58.135Z,8.52
2023-01-13T09:58:25.175Z,7.88
2023-01-13T10:01:13.184Z,7.55
2023-01-13T10:03:40.390Z,7.72
2023-01-13T10:06:51.882Z,7.82
2023-01-13T10:09:44.073Z,7.20
2023-01-13T10:12:36.417Z,6.72
2023-01-13T10:15:04.034Z,5.32
2023-01-13T10:17:51.036Z,6.38
2023-01-13T10:20:26.749Z,6.90
2023-01-13T10:23:15.321Z,7.13
2023-01-13T10:25:56.761Z,6.70
2023-01-13T10:28:25.487Z,6.85
2023-01-13T10:30:52.700Z,9.63
2023-01-13T10:33:28.143Z,7.07
2023-01-13T10:36:12.974Z,6.55
2023-01-13T10:38:46.195Z,7.18
2023-01-13T10:41:15.855Z,7.00
2023-01-13T10:44:01.656Z,7.07
2023-01-13T10:46:29.626Z,6.93
2023-01-13T10:48:59.031Z,6.65
2023-01-13T10:51:39.135Z,6.72
2023-01-13T10:54:12.849Z,6.50
2023-01-13T10:56:42.588Z,6.28
2023-01-13T10:59:28.945Z,6.78
2023-01-13T11:02:13.115Z,6.50
2023-01-13T11:04:53.521Z,5.68
2023-01-13T11:07:58.161Z,5.68
2023-01-13T11:10:28.972Z,6.28
2023-01-13T11:13:12.700Z,6.13
2023-01-13T11:15:46.409Z,6.17
2023-01-13T11:18:24.990Z,5.85
2023-01-13T11:20:53.146Z,6.13
2023-01-13T11:23:34.421Z,6.97
2023-01-13T11:26:24.051Z,5.85
2023-01-13T11:29:00.989Z,6.65
2023-01-13T11:31:33.864Z,6.65
2023-01-13T11:34:37.239Z,6.38
2023-01-13T11:37:14.898Z,7.32
2023-01-13T11:39:53.981Z,6.93
2023-01-13T11:42:46.551Z,7.97
2023-01-13T11:45:25.283Z,6.95
2023-01-13T11:47:58.291Z,7.10
2023-01-13T11:50:40.842Z,6.68
2023-01-13T11:53:22.331Z,7.13
2023-01-13T11:56:16.942Z,7.47
2023-01-13T11:58:55.717Z,7.43
2023-01-13T12:01:44.009Z,7.03
2023-01-13T12:04:50.080Z,8.25
2023-01-13T12:08:04.889Z,7.47
2023-01-13T12:10:34.731Z,6.85
2023-01-13T12:13:27.704Z,7.50
2023-01-13T12:16:14.906Z,7.50
2023-01-13T12:19:21.617Z,7.25
2023-01-13T12:21:56.969Z,7.65
2023-01-13T12:25:03.028Z,8.57
2023-01-13T12:27:45.322Z,8.38
2023-01-13T12:30:37.279Z,8.27
2023-01-13T12:33:26.954Z,8.70
2023-01-13T12:36:26.476Z,7.45
2023-01-13T12:38:59.575Z,8.40
2023-01-13T12:41:32.847Z,6.70
2023-01-13T12:44:20.350Z,8.38
2023-01-13T12:46:56.827Z,8.15
2023-01-13T12:49:29.631Z,7.05
2023-01-13T12:51:56.508Z,7.60
2023-01-13T12:54:41.603Z,7.53
2023-01-13T12:57:21.922Z,7.30
2023-01-13T13:00:04.038Z,5.63
2023-01-13T13:02:41.407Z,7.18
2023-01-13T13:05:14.484Z,6.72
2023-01-13T13:08:20.942Z,6.78
2023-01-13T13:11:03.176Z,5.15
2023-01-13T13:13:43.787Z,5.55
2023-01-13T13:16:50.691Z,5.97
2023-01-13T13:19:21.351Z,4.97
2023-01-13T13:22:12.954Z,6.15
2023-01-13T13:25:03.862Z,5.65
2023-01-13T13:27:50.155Z,4.50
2023-01-13T13:30:40.739Z,3.33
2023-01-13T13:33:35.298Z,3.65
2023-01-13T13:36:11.480Z,3.10
2023-01-13T13:39:08.137Z,3.35
2023-01-13T13:41:55.687Z,3.33
2023-01-13T13:44:59.562Z,3.13
2023-01-13T13:47:39.182Z,2.90
2023-01-13T13:50:12.939Z,2.97
2023-01-13T13:52:54.558Z,3.27
2023-01-13T13:55:27.411Z,3.63
2023-01-13T13:57:57.709Z,4.22
2023-01-13T14:03:40.003Z,2.95
2023-01-13T14:06:08.179Z,2.80
2023-01-13T14:08:38.478Z,3.80
2023-01-13T14:11:32.654Z,3.65
2023-01-13T14:14:12.914Z,3.08
2023-01-13T14:16:44.020Z,2.63
2023-01-13T14:19:30.750Z,3.17
2023-01-13T14:22:01.870Z,2.95
2023-01-13T14:24:32.048Z,2.88
2023-01-13T14:27:16.491Z,2.88
2023-01-13T14:29:44.268Z,3.10
2023-01-13T14:32:17.882Z,2.92
2023-01-13T14:34:45.156Z,3.17
2023-01-13T14:37:33.760Z,2.70
2023-01-13T14:40:00.800Z,3.03
2023-01-13T14:42:42.162Z,3.50
2023-01-13T14:45:25.081Z,3.28
2023-01-13T14:47:53.975Z,3.47
2023-01-13T14:50:28.768Z,2.75
2023-01-13T14:53:04.556Z,2.72
2023-01-13T14:55:34.834Z,3.67
2023-01-13T14:58:37.621Z,3.25
2023-01-13T15:01:26.437Z,3.00
2023-01-13T15:04:18.334Z,3.92
2023-01-13T15:06:50.742Z,3.97
2023-01-13T15:09:25.689Z,3.85
2023-01-13T15:11:54.389Z,3.58
2023-01-13T15:14:31.286Z,4.50
2023-01-13T15:16:58.396Z,4.00
2023-01-13T15:19:25.295Z,4.00
2023-01-13T15:21:52.414Z,4.13
2023-01-13T15:24:19.312Z,4.00
2023-01-13T15:26:46.285Z,4.30
2023-01-13T15:29:17.509Z,5.60
2023-01-13T15:31:44.635Z,5.10
2023-01-13T15:34:11.719Z,5.38
2023-01-13T15:36:39.973Z,4.68
2023-01-13T15:39:13.366Z,4.82
2023-01-13T15:41:58.624Z,4.72
2023-01-13T15:44:45.146Z,6.43
2023-01-13T15:48:17.063Z,5.20
2023-01-13T15:50:44.071Z,4.53
2023-01-13T15:53:14.384Z,5.28
2023-01-13T15:55:47.373Z,6.25
2023-01-13T15:58:14.944Z,7.60
2023-01-13T16:00:42.700Z,6.60
2023-01-13T16:03:16.573Z,5.63
2023-01-13T16:05:44.559Z,4.90
2023-01-13T16:08:19.306Z,5.32
2023-01-13T16:10:46.742Z,4.70
2023-01-13T16:13:16.438Z,5.45
2023-01-13T16:15:50.091Z,5.05
2023-01-13T16:18:20.406Z,5.93
2023-01-13T16:20:52.925Z,5.38
2023-01-13T16:23:22.533Z,5.90
2023-01-13T16:25:50.557Z,5.40
2023-01-13T16:28:24.107Z,6.53
2023-01-13T16:30:51.818Z,5.43
2023-01-13T16:33:18.786Z,6.85
2023-01-13T16:36:10.957Z,5.63
2023-01-13T16:38:33.186Z,5.43
2023-01-13T16:41:00.106Z,4.70
2023-01-13T16:43:27.913Z,4.75
2023-01-13T16:45:54.846Z,5.55
2023-01-13T16:48:22.841Z,6.40
2023-01-13T16:50:49.785Z,6.20
2023-01-13T16:53:17.067Z,6.30
2023-01-13T16:55:44.016Z,6.88
2023-01-13T16:58:20.891Z,5.72
2023-01-13T17:00:48.227Z,7.13
2023-01-13T17:03:16.456Z,6.78
2023-01-13T17:05:46.930Z,6.93
2023-01-13T17:08:17.772Z,6.93
2023-01-13T17:10:46.040Z,6.05
2023-01-13T17:13:16.757Z,7.18
2023-01-13T17:15:44.736Z,7.32
2023-01-13T17:18:13.620Z,7.07
2023-01-13T17:20:41.235Z,7.18
2023-01-13T17:23:08.518Z,6.75
2023-01-13T17:25:35.572Z,8.02
2023-01-13T17:28:02.894Z,7.30
2023-01-13T17:30:38.039Z,7.47
2023-01-13T17:33:08.050Z,7.15
2023-01-13T17:35:35.728Z,7.18
2023-01-13T17:38:03.306Z,7.47
2023-01-13T17:40:32.739Z,7.13
2023-01-13T17:42:59.714Z,6.90
2023-01-13T17:45:33.226Z,8.18
2023-01-13T17:48:00.711Z,7.13
2023-01-13T17:50:27.964Z,6.50
2023-01-13T17:52:54.806Z,8.48
2023-01-13T17:55:21.756Z,8.38
2023-01-13T17:57:48.765Z,8.77
2023-01-13T18:00:16.615Z,10.88
2023-01-13T18:02:47.572Z,8.35
2023-01-13T18:05:14.620Z,8.52
2023-01-13T18:07:49.117Z,9.35
2023-01-13T18:10:16.457Z,9.00
2023-01-13T18:12:44.323Z,8.13
2023-01-13T18:15:11.289Z,9.07
2023-01-13T18:17:38.247Z,9.20
2023-01-13T18:20:26.244Z,14.68
2023-01-13T18:23:11.758Z,11.75
2023-01-13T18:26:03.135Z,10.90
2023-01-13T18:28:30.182Z,10.15
2023-01-13T18:30:57.169Z,9.18
2023-01-13T18:33:24.723Z,9.98
2023-01-13T18:35:53.032Z,10.52
2023-01-13T18:38:23.865Z,10.57
2023-01-13T18:40:50.813Z,10.13
2023-01-13T18:43:17.904Z,10.52
2023-01-13T18:45:50.557Z,10.70
2023-01-13T18:48:17.496Z,11.80
2023-01-13T18:50:44.425Z,12.13
2023-01-13T18:53:11.482Z,12.10
2023-01-13T18:55:38.454Z,13.15
2023-01-13T18:58:06.034Z,12.05
2023-01-13T19:00:36.693Z,12.07
2023-01-13T19:05:34.498Z,12.40
2023-01-13T19:08:02.252Z,15.07
2023-01-13T19:10:32.193Z,10.80
2023-01-13T19:12:59.087Z,11.88
2023-01-13T19:15:26.015Z,12.07
2023-01-13T19:17:52.924Z,11.60
2023-01-13T19:20:20.206Z,9.35
2023-01-13T19:22:54.044Z,9.18
2023-01-13T19:25:21.424Z,9.57
2023-01-13T19:27:48.682Z,10.43
2023-01-13T19:30:16.452Z,10.13
2023-01-13T19:32:43.391Z,9.68
2023-01-13T19:35:13.214Z,9.57
2023-01-13T19:37:40.610Z,8.30
2023-01-13T19:40:09.517Z,9.40
2023-01-13T19:42:54.764Z,8.65
2023-01-13T19:45:27.887Z,8.32
2023-01-13T19:47:56.252Z,9.00
2023-01-13T19:50:24.298Z,9.10
2023-01-13T19:52:51.385Z,8.93
2023-01-13T19:55:19.935Z,9.32
2023-01-13T19:57:47.454Z,9.23
2023-01-13T20:00:17.195Z,9.95
2023-01-13T20:02:49.448Z,9.60
2023-01-13T20:05:21.444Z,8.50
2023-01-13T20:07:50.178Z,9.52
2023-01-13T20:10:18.779Z,9.73
2023-01-13T20:12:45.666Z,9.43
2023-01-13T20:15:12.949Z,9.77
2023-01-13T20:17:41.525Z,10.50
2023-01-13T20:20:09.791Z,9.50
2023-01-13T20:22:38.120Z,10.40
2023-01-13T20:25:05.535Z,10.50
2023-01-13T20:27:32.666Z,9.70
2023-01-13T20:29:59.683Z,9.60
2023-01-13T20:32:26.628Z,10.10
2023-01-13T20:34:53.616Z,9.88
2023-01-13T20:37:20.597Z,9.48
2023-01-13T20:39:48.346Z,9.52
2023-01-13T20:42:30.348Z,9.70
2023-01-13T20:45:01.332Z,9.40
2023-01-13T20:47:29.616Z,9.68
2023-01-13T20:49:56.701Z,8.70
2023-01-13T20:52:24.055Z,9.88
2023-01-13T20:54:51.130Z,9.75
2023-01-13T20:57:18.561Z,9.45
2023-01-13T20:59:45.846Z,9.30
2023-01-13T21:02:15.627Z,9.80
2023-01-13T21:04:42.849Z,10.15
2023-01-13T21:07:10.440Z,10.63
2023-01-13T21:09:37.422Z,10.40
2023-01-13T21:12:23.241Z,10.48
2023-01-13T21:15:08.854Z,8.85
2023-01-13T21:17:54.847Z,11.15
2023-01-13T21:20:22.225Z,9.20
2023-01-13T21:22:49.873Z,11.95
2023-01-13T21:25:18.342Z,11.73
2023-01-13T21:27:45.584Z,11.98
2023-01-13T21:30:14.995Z,12.30
2023-01-13T21:32:43.016Z,11.75
2023-01-13T21:35:11.868Z,12.02
2023-01-13T21:37:40.551Z,12.10
2023-01-13T21:40:10.336Z,12.75
2023-01-13T21:42:56.581Z,12.60
2023-01-13T21:45:42.715Z,11.55
2023-01-13T21:48:09.762Z,13.65
2023-01-13T21:50:38.379Z,12.55
2023-01-13T21:53:05.543Z,13.10
2023-01-13T21:55:33.024Z,14.13
2023-01-13T21:58:15.206Z,13.30
2023-01-13T22:00:44.820Z,14.25
2023-01-13T22:03:14.119Z,16.58
2023-01-13T22:05:41.457Z,14.25
2023-01-13T22:08:08.918Z,12.65
2023-01-13T22:10:36.000Z,12.57
2023-01-13T22:13:23.540Z,13.63
2023-01-13T22:15:50.559Z,12.05
2023-01-13T22:18:18.529Z,12.07
2023-01-13T22:20:46.388Z,12.02
2023-01-13T22:23:13.747Z,12.15
2023-01-13T22:25:40.780Z,12.40
2023-01-13T22:28:09.481Z,13.27
2023-01-13T22:30:36.541Z,12.57
2023-01-13T22:33:06.227Z,12.50
2023-01-13T22:35:33.136Z,12.38
2023-01-13T22:38:00.107Z,13.40
2023-01-13T22:40:27.054Z,13.75
2023-01-13T22:42:54.066Z,13.52
2023-01-13T22:45:21.116Z,13.68
2023-01-13T22:47:49.706Z,13.27
2023-01-13T22:50:20.939Z,13.45
2023-01-13T22:52:47.969Z,12.73
2023-01-13T22:55:15.056Z,12.85
2023-01-13T22:57:47.715Z,13.02
2023-01-13T23:00:19.163Z,12.98
2023-01-13T23:02:46.520Z,13.43
2023-01-13T23:05:13.999Z,13.75
2023-01-13T23:07:41.327Z,12.70
2023-01-13T23:10:08.964Z,13.25
2023-01-13T23:12:36.149Z,12.60
2023-01-13T23:15:03.728Z,13.20
2023-01-13T23:17:30.716Z,13.65
2023-01-13T23:19:57.628Z,15.45
2023-01-13T23:22:24.887Z,13.13
2023-01-13T23:24:51.744Z,13.02
2023-01-13T23:27:18.886Z,13.88
2023-01-13T23:29:46.347Z,13.43
2023-01-13T23:32:13.321Z,14.35
2023-01-13T23:34:40.208Z,14.02
2023-01-13T23:37:07.324Z,15.07
2023-01-13T23:39:34.258Z,14.15
2023-01-13T23:42:01.495Z,13.82
2023-01-13T23:44:29.597Z,13.70
2023-01-13T23:46:56.709Z,14.50
2023-01-13T23:49:23.796Z,14.40
2023-01-13T23:51:51.906Z,13.73
2023-01-13T23:54:19.414Z,14.32
2023-01-13T23:56:49.135Z,14.23
2023-01-13T23:59:16.390Z,14.60
